Domov
logo

Vyskúšajte rýchly a spoľahlivý webhosting

Aktuálne počasie

LZIB - letisko Bratislava

Hodnoty namerané: 14.04.2021, 06:30 SELČ
Aktuálny čas: 14.04.2021, 06:42 SELČ
Aktualizované: pred 12 min.
Teplota: 3°C, pocitová teplota -3°C
Rosný bod: 0°C
Vietor: 30 km/h 330° (SSZ)
Dohľadnosť: viac ako 10 km
Stav počasia: slabý(á,é) dážď
Oblačnosť: malá oblačnosť na 335 m, polooblačno na 549 m
Základňa oblačnosti: 335 m
Vlhkosť vzduchu: 81 %
Tlak vzduchu: 1021 hPa
METAR: LZIB 140430Z 33016KT 9999 -RA FEW011 SCT018 03/00 Q1021 NOSIG

LZKZ - letisko Košice

Hodnoty namerané: 14.04.2021, 06:30 SELČ
Aktuálny čas: 14.04.2021, 06:42 SELČ
Aktualizované: pred 12 min.
Teplota: 2°C, pocitová teplota -4°C
Rosný bod: 0°C
Vietor: 31 km/h 10° (S)
Dohľadnosť: viac ako 10 km
Stav počasia: slabý(á,é) dážď
Oblačnosť: malá oblačnosť na 853 m
Základňa oblačnosti: 853 m
Vlhkosť vzduchu: 87 %
Tlak vzduchu: 1016 hPa
METAR: LZKZ 140430Z 01017KT 9999 -RA FEW028 02/M00 Q1016 NOSIG

LZPP - letisko Piešťany

Hodnoty namerané: 14.04.2021, 06:30 SELČ
Aktuálny čas: 14.04.2021, 06:42 SELČ
Aktualizované: pred 12 min.
Teplota: 3°C, pocitová teplota -3°C
Rosný bod: 0°C
Vietor: 31 km/h 330° (SSZ)
Dohľadnosť: viac ako 10 km
Stav počasia: bez zrážok
Oblačnosť: polooblačno na 884 m
Základňa oblačnosti: 884 m
Vlhkosť vzduchu: 81 %
Tlak vzduchu: 1020 hPa
METAR: LZPP 140430Z 33017KT 9999 SCT029 03/00 Q1020

LZTT - letisko Poprad Tatry

Hodnoty namerané: 14.04.2021, 06:30 SELČ
Aktuálny čas: 14.04.2021, 06:42 SELČ
Aktualizované: pred 12 min.
Teplota: -1°C, pocitová teplota -4°C
Rosný bod: -2°C
Vietor: 7 km/h 300° (ZSZ) kolíše v rozsahu 240°-10° (ZJZ-S)
Dohľadnosť: viac ako 10 km
Stav počasia: bez zrážok
Oblačnosť: malá oblačnosť na 396 m, oblačno na 1524 m
Základňa oblačnosti: 396 m
Vlhkosť vzduchu: 93 %
Tlak vzduchu: 1015 hPa
METAR: LZTT 140430Z 30004KT 240V010 9999 FEW013 BKN050 M01/M02 Q1015 NOSIG

LZSL - letisko Sliač

Hodnoty namerané: 13.04.2021, 20:08 SELČ
Aktuálny čas: 14.04.2021, 06:42 SELČ
Aktualizované: pred 10:34 hod.
Teplota: 3°C, pocitová teplota -2°C
Rosný bod: 1°C
Vietor: 26 km/h 350° (S)
Dohľadnosť: 5000 m
Stav počasia: slabý(á,é) dážď, dymno
Oblačnosť: oblačno na 671 m, zamračené na 853 m
Základňa oblačnosti: 671 m
Vlhkosť vzduchu: 87 %
Tlak vzduchu: 1017 hPa
METAR: LZSL 131808Z 35014KT 5000 -RA BR BKN022 OVC028 03/01 Q1017

LZZI - letisko Žilina

Hodnoty namerané: 14.04.2021, 06:30 SELČ
Aktuálny čas: 14.04.2021, 06:42 SELČ
Aktualizované: pred 12 min.
Teplota: 2°C, pocitová teplota -0°C
Rosný bod: 0°C
Vietor: 7 km/h 50° (SV) kolíše v rozsahu 340°-100° (SSZ-V)
Dohľadnosť: 6000 m
Stav počasia: slabý(á,é) dážď
Oblačnosť: polooblačno na 457 m, zamračené na 579 m
Základňa oblačnosti: 457 m
Vlhkosť vzduchu: 87 %
Tlak vzduchu: 1019 hPa
METAR: LZZI 140430Z 05004KT 340V100 6000 -RA SCT015 OVC019 02/M00 Q1019

POZNÁMKY:

SEČ - stredoeurópsky čas (UTC+1hod.)

SELČ - stredoeurópsky letný čas (UTC+2hod.)

UTC - univerzálny svetový čas, GMT, ZULU

METAR - sú pravidelné kódované letecké meteorologické správy. Tie zostavujú a zverejňujú meteorologické stanice letísk v polhodinových/hodinových intervaloch. Na tejto stránke správy METAR zo slovenských letísk nájdete už v dekódovanej podobe.

hore